sensor_id;sensor_type;location;lat;lon;timestamp;temperature;humidity
24860;DHT22;12936;52.006;4.350;2023-06-26T00:00:07;28.40;99.90
24860;DHT22;12936;52.006;4.350;2023-06-26T00:02:37;28.40;99.90
24860;DHT22;12936;52.006;4.350;2023-06-26T00:05:05;28.30;99.90
24860;DHT22;12936;52.006;4.350;2023-06-26T00:07:34;28.20;99.90
24860;DHT22;12936;52.006;4.350;2023-06-26T00:10:03;28.20;99.90
24860;DHT22;12936;52.006;4.350;2023-06-26T00:12:32;28.10;99.90
24860;DHT22;12936;52.006;4.350;2023-06-26T00:15:00;28.00;99.90
24860;DHT22;12936;52.006;4.350;2023-06-26T00:17:28;28.00;99.90
24860;DHT22;12936;52.006;4.350;2023-06-26T00:19:58;27.90;99.90
24860;DHT22;12936;52.006;4.350;2023-06-26T00:22:26;27.80;99.90
24860;DHT22;12936;52.006;4.350;2023-06-26T00:24:54;27.70;99.90
24860;DHT22;12936;52.006;4.350;2023-06-26T00:27:22;27.70;99.90
24860;DHT22;12936;52.006;4.350;2023-06-26T00:29:50;27.60;99.90
24860;DHT22;12936;52.006;4.350;2023-06-26T00:32:19;27.60;99.90
24860;DHT22;12936;52.006;4.350;2023-06-26T00:34:47;27.50;99.90
24860;DHT22;12936;52.006;4.350;2023-06-26T00:37:17;27.40;99.90
24860;DHT22;12936;52.006;4.350;2023-06-26T00:39:45;27.40;99.90
24860;DHT22;12936;52.006;4.350;2023-06-26T00:42:13;27.30;99.90
24860;DHT22;12936;52.006;4.350;2023-06-26T00:44:41;27.30;99.90
24860;DHT22;12936;52.006;4.350;2023-06-26T00:47:13;27.20;99.90
24860;DHT22;12936;52.006;4.350;2023-06-26T00:49:42;27.10;99.90
24860;DHT22;12936;52.006;4.350;2023-06-26T00:52:11;27.10;99.90
24860;DHT22;12936;52.006;4.350;2023-06-26T00:54:40;27.00;99.90
24860;DHT22;12936;52.006;4.350;2023-06-26T00:57:09;26.90;99.90
24860;DHT22;12936;52.006;4.350;2023-06-26T00:59:37;26.90;99.90
24860;DHT22;12936;52.006;4.350;2023-06-26T01:02:05;26.80;99.90
24860;DHT22;12936;52.006;4.350;2023-06-26T01:04:35;26.80;99.90
24860;DHT22;12936;52.006;4.350;2023-06-26T01:07:04;26.70;99.90
24860;DHT22;12936;52.006;4.350;2023-06-26T01:09:34;26.70;99.90
24860;DHT22;12936;52.006;4.350;2023-06-26T01:12:06;26.60;99.90
24860;DHT22;12936;52.006;4.350;2023-06-26T01:14:34;26.60;99.90
24860;DHT22;12936;52.006;4.350;2023-06-26T01:17:04;26.50;99.90
24860;DHT22;12936;52.006;4.350;2023-06-26T01:19:33;26.60;99.90
24860;DHT22;12936;52.006;4.350;2023-06-26T01:22:09;26.50;99.90
24860;DHT22;12936;52.006;4.350;2023-06-26T01:24:51;26.50;99.90
24860;DHT22;12936;52.006;4.350;2023-06-26T01:27:23;26.40;99.90
24860;DHT22;12936;52.006;4.350;2023-06-26T01:29:55;26.40;99.90
24860;DHT22;12936;52.006;4.350;2023-06-26T01:32:24;26.40;99.90
24860;DHT22;12936;52.006;4.350;2023-06-26T01:34:52;26.30;99.90
24860;DHT22;12936;52.006;4.350;2023-06-26T01:37:21;26.30;99.90
24860;DHT22;12936;52.006;4.350;2023-06-26T01:39:49;26.30;99.90
24860;DHT22;12936;52.006;4.350;2023-06-26T01:42:17;26.20;99.90
24860;DHT22;12936;52.006;4.350;2023-06-26T01:44:47;26.20;99.90
24860;DHT22;12936;52.006;4.350;2023-06-26T01:47:19;26.10;99.90
24860;DHT22;12936;52.006;4.350;2023-06-26T01:49:52;26.10;99.90
24860;DHT22;12936;52.006;4.350;2023-06-26T01:52:27;26.10;99.90
24860;DHT22;12936;52.006;4.350;2023-06-26T01:55:01;26.10;99.90
24860;DHT22;12936;52.006;4.350;2023-06-26T01:57:31;26.00;99.90
24860;DHT22;12936;52.006;4.350;2023-06-26T02:00:04;25.90;99.90
24860;DHT22;12936;52.006;4.350;2023-06-26T02:02:37;25.90;99.90
24860;DHT22;12936;52.006;4.350;2023-06-26T02:05:05;25.80;99.90
24860;DHT22;12936;52.006;4.350;2023-06-26T02:07:33;25.70;99.90
24860;DHT22;12936;52.006;4.350;2023-06-26T02:10:02;25.70;99.90
24860;DHT22;12936;52.006;4.350;2023-06-26T02:12:34;25.60;99.90
24860;DHT22;12936;52.006;4.350;2023-06-26T02:15:04;25.70;99.90
24860;DHT22;12936;52.006;4.350;2023-06-26T02:17:32;25.60;99.90
24860;DHT22;12936;52.006;4.350;2023-06-26T02:20:01;25.40;99.90
24860;DHT22;12936;52.006;4.350;2023-06-26T02:22:30;25.40;99.90
24860;DHT22;12936;52.006;4.350;2023-06-26T02:24:58;25.20;99.90
24860;DHT22;12936;52.006;4.350;2023-06-26T02:27:26;25.30;99.90
24860;DHT22;12936;52.006;4.350;2023-06-26T02:29:54;25.20;99.90
24860;DHT22;12936;52.006;4.350;2023-06-26T02:32:24;25.20;99.90
24860;DHT22;12936;52.006;4.350;2023-06-26T02:34:52;25.20;99.90
24860;DHT22;12936;52.006;4.350;2023-06-26T02:37:20;25.20;99.90
24860;DHT22;12936;52.006;4.350;2023-06-26T02:39:48;25.20;99.90
24860;DHT22;12936;52.006;4.350;2023-06-26T02:42:16;25.10;99.90
24860;DHT22;12936;52.006;4.350;2023-06-26T02:44:44;25.10;99.90
24860;DHT22;12936;52.006;4.350;2023-06-26T02:47:12;25.00;99.90
24860;DHT22;12936;52.006;4.350;2023-06-26T02:49:42;25.00;99.90
24860;DHT22;12936;52.006;4.350;2023-06-26T02:52:13;25.00;99.90
24860;DHT22;12936;52.006;4.350;2023-06-26T02:54:41;24.90;99.90
24860;DHT22;12936;52.006;4.350;2023-06-26T02:57:10;24.90;99.90
24860;DHT22;12936;52.006;4.350;2023-06-26T02:59:41;24.80;99.90
24860;DHT22;12936;52.006;4.350;2023-06-26T03:02:09;24.80;99.90
24860;DHT22;12936;52.006;4.350;2023-06-26T03:04:37;24.80;99.90
24860;DHT22;12936;52.006;4.350;2023-06-26T03:07:07;24.70;99.90
24860;DHT22;12936;52.006;4.350;2023-06-26T03:09:35;24.70;99.90
24860;DHT22;12936;52.006;4.350;2023-06-26T03:12:03;24.60;99.90
24860;DHT22;12936;52.006;4.350;2023-06-26T03:14:32;24.60;99.90
24860;DHT22;12936;52.006;4.350;2023-06-26T03:17:00;24.60;99.90
24860;DHT22;12936;52.006;4.350;2023-06-26T03:19:30;24.60;99.90
24860;DHT22;12936;52.006;4.350;2023-06-26T03:21:59;24.60;99.90
24860;DHT22;12936;52.006;4.350;2023-06-26T03:24:28;24.60;99.90
24860;DHT22;12936;52.006;4.350;2023-06-26T03:26:56;24.60;99.90
24860;DHT22;12936;52.006;4.350;2023-06-26T03:29:24;24.50;99.90
24860;DHT22;12936;52.006;4.350;2023-06-26T03:31:52;24.50;99.90
24860;DHT22;12936;52.006;4.350;2023-06-26T03:34:20;24.50;99.90
24860;DHT22;12936;52.006;4.350;2023-06-26T03:36:49;24.30;99.90
24860;DHT22;12936;52.006;4.350;2023-06-26T03:39:17;24.30;99.90
24860;DHT22;12936;52.006;4.350;2023-06-26T03:41:46;24.30;99.90
24860;DHT22;12936;52.006;4.350;2023-06-26T03:44:14;24.30;99.90
24860;DHT22;12936;52.006;4.350;2023-06-26T03:46:43;24.30;99.90
24860;DHT22;12936;52.006;4.350;2023-06-26T03:49:11;24.30;99.90
24860;DHT22;12936;52.006;4.350;2023-06-26T03:51:39;24.10;99.90
24860;DHT22;12936;52.006;4.350;2023-06-26T03:54:08;24.20;99.90
24860;DHT22;12936;52.006;4.350;2023-06-26T03:56:36;24.10;99.90
24860;DHT22;12936;52.006;4.350;2023-06-26T03:59:06;24.10;99.90
24860;DHT22;12936;52.006;4.350;2023-06-26T04:01:36;24.00;99.90
24860;DHT22;12936;52.006;4.350;2023-06-26T04:04:04;23.80;99.90
24860;DHT22;12936;52.006;4.350;2023-06-26T04:06:32;23.80;99.90
24860;DHT22;12936;52.006;4.350;2023-06-26T04:09:01;23.90;99.90
24860;DHT22;12936;52.006;4.350;2023-06-26T04:11:31;23.90;99.90
24860;DHT22;12936;52.006;4.350;2023-06-26T04:13:59;23.80;99.90
24860;DHT22;12936;52.006;4.350;2023-06-26T04:16:29;23.70;99.90
24860;DHT22;12936;52.006;4.350;2023-06-26T04:18:59;23.70;99.90
24860;DHT22;12936;52.006;4.350;2023-06-26T04:21:29;23.60;99.90
24860;DHT22;12936;52.006;4.350;2023-06-26T04:23:57;23.70;99.90
24860;DHT22;12936;52.006;4.350;2023-06-26T04:26:25;23.70;99.90
24860;DHT22;12936;52.006;4.350;2023-06-26T04:28:54;23.70;99.90
24860;DHT22;12936;52.006;4.350;2023-06-26T04:31:22;23.60;99.90
24860;DHT22;12936;52.006;4.350;2023-06-26T04:33:52;23.60;99.90
24860;DHT22;12936;52.006;4.350;2023-06-26T04:36:21;23.60;99.90
24860;DHT22;12936;52.006;4.350;2023-06-26T04:38:50;23.60;99.90
24860;DHT22;12936;52.006;4.350;2023-06-26T04:41:18;23.60;99.90
24860;DHT22;12936;52.006;4.350;2023-06-26T04:43:46;23.60;99.90
24860;DHT22;12936;52.006;4.350;2023-06-26T04:46:14;23.50;99.90
24860;DHT22;12936;52.006;4.350;2023-06-26T04:48:42;23.50;99.90
24860;DHT22;12936;52.006;4.350;2023-06-26T04:51:12;23.50;99.90
24860;DHT22;12936;52.006;4.350;2023-06-26T04:53:40;23.40;99.90
24860;DHT22;12936;52.006;4.350;2023-06-26T04:56:08;23.40;99.90
24860;DHT22;12936;52.006;4.350;2023-06-26T04:58:38;23.40;99.90
24860;DHT22;12936;52.006;4.350;2023-06-26T05:01:06;23.40;99.90
24860;DHT22;12936;52.006;4.350;2023-06-26T05:03:34;23.40;99.90
24860;DHT22;12936;52.006;4.350;2023-06-26T05:06:04;23.40;99.90
24860;DHT22;12936;52.006;4.350;2023-06-26T05:08:37;23.40;99.90
24860;DHT22;12936;52.006;4.350;2023-06-26T05:11:05;23.30;99.90
24860;DHT22;12936;52.006;4.350;2023-06-26T05:13:33;23.30;99.90
24860;DHT22;12936;52.006;4.350;2023-06-26T05:16:01;23.30;99.90
24860;DHT22;12936;52.006;4.350;2023-06-26T05:18:29;23.30;99.90
24860;DHT22;12936;52.006;4.350;2023-06-26T05:20:57;23.10;99.90
24860;DHT22;12936;52.006;4.350;2023-06-26T05:23:26;23.00;99.90
24860;DHT22;12936;52.006;4.350;2023-06-26T05:25:56;23.00;99.90
24860;DHT22;12936;52.006;4.350;2023-06-26T05:28:25;22.90;99.90
24860;DHT22;12936;52.006;4.350;2023-06-26T05:30:55;22.90;99.90
24860;DHT22;12936;52.006;4.350;2023-06-26T05:33:24;22.70;99.90
24860;DHT22;12936;52.006;4.350;2023-06-26T05:35:53;22.70;99.90
24860;DHT22;12936;52.006;4.350;2023-06-26T05:38:22;22.60;99.90
24860;DHT22;12936;52.006;4.350;2023-06-26T05:40:50;22.60;99.90
24860;DHT22;12936;52.006;4.350;2023-06-26T05:43:22;22.50;99.90
24860;DHT22;12936;52.006;4.350;2023-06-26T05:45:54;22.30;99.90
24860;DHT22;12936;52.006;4.350;2023-06-26T05:48:22;22.20;99.90
24860;DHT22;12936;52.006;4.350;2023-06-26T05:50:51;22.20;99.90
24860;DHT22;12936;52.006;4.350;2023-06-26T05:53:19;22.20;99.90
24860;DHT22;12936;52.006;4.350;2023-06-26T05:55:48;22.10;99.90
24860;DHT22;12936;52.006;4.350;2023-06-26T05:58:17;22.00;99.90
24860;DHT22;12936;52.006;4.350;2023-06-26T06:00:49;22.00;99.90
24860;DHT22;12936;52.006;4.350;2023-06-26T06:03:17;22.00;99.90
24860;DHT22;12936;52.006;4.350;2023-06-26T06:05:45;22.00;99.90
24860;DHT22;12936;52.006;4.350;2023-06-26T06:08:14;22.00;99.90
24860;DHT22;12936;52.006;4.350;2023-06-26T06:10:42;22.00;99.90
24860;DHT22;12936;52.006;4.350;2023-06-26T06:13:10;21.90;99.90
24860;DHT22;12936;52.006;4.350;2023-06-26T06:15:38;21.90;99.90
24860;DHT22;12936;52.006;4.350;2023-06-26T06:18:07;21.90;99.90
24860;DHT22;12936;52.006;4.350;2023-06-26T06:20:35;22.00;99.90
24860;DHT22;12936;52.006;4.350;2023-06-26T06:23:04;22.00;99.90
24860;DHT22;12936;52.006;4.350;2023-06-26T06:25:33;21.90;99.90
24860;DHT22;12936;52.006;4.350;2023-06-26T06:28:01;21.90;99.90
24860;DHT22;12936;52.006;4.350;2023-06-26T06:30:29;21.90;99.90
24860;DHT22;12936;52.006;4.350;2023-06-26T06:33:11;21.90;99.90
24860;DHT22;12936;52.006;4.350;2023-06-26T06:35:39;22.00;99.90
24860;DHT22;12936;52.006;4.350;2023-06-26T06:38:07;21.90;99.90
24860;DHT22;12936;52.006;4.350;2023-06-26T06:40:35;22.00;99.90
24860;DHT22;12936;52.006;4.350;2023-06-26T06:43:04;22.00;99.90
24860;DHT22;12936;52.006;4.350;2023-06-26T06:45:32;22.00;99.90
24860;DHT22;12936;52.006;4.350;2023-06-26T06:48:00;21.90;99.90
24860;DHT22;12936;52.006;4.350;2023-06-26T06:50:30;21.90;99.90
24860;DHT22;12936;52.006;4.350;2023-06-26T06:52:58;21.90;99.90
24860;DHT22;12936;52.006;4.350;2023-06-26T06:55:26;21.80;99.90
24860;DHT22;12936;52.006;4.350;2023-06-26T06:57:54;21.70;99.90
24860;DHT22;12936;52.006;4.350;2023-06-26T07:00:22;21.60;99.90
24860;DHT22;12936;52.006;4.350;2023-06-26T07:02:50;21.60;99.90
24860;DHT22;12936;52.006;4.350;2023-06-26T07:05:19;21.50;99.90
24860;DHT22;12936;52.006;4.350;2023-06-26T07:07:48;21.50;99.90
24860;DHT22;12936;52.006;4.350;2023-06-26T07:10:16;21.50;99.90
24860;DHT22;12936;52.006;4.350;2023-06-26T07:12:44;21.50;99.90
24860;DHT22;12936;52.006;4.350;2023-06-26T07:15:12;21.50;99.90
24860;DHT22;12936;52.006;4.350;2023-06-26T07:17:40;21.50;99.90
24860;DHT22;12936;52.006;4.350;2023-06-26T07:20:09;21.50;99.90
24860;DHT22;12936;52.006;4.350;2023-06-26T07:22:42;21.60;99.90
24860;DHT22;12936;52.006;4.350;2023-06-26T07:25:13;21.60;99.90
24860;DHT22;12936;52.006;4.350;2023-06-26T07:27:42;21.60;99.90
24860;DHT22;12936;52.006;4.350;2023-06-26T07:30:12;21.60;99.90
24860;DHT22;12936;52.006;4.350;2023-06-26T07:32:40;21.60;99.90
24860;DHT22;12936;52.006;4.350;2023-06-26T07:35:09;21.50;99.90
24860;DHT22;12936;52.006;4.350;2023-06-26T07:37:37;21.60;99.90
24860;DHT22;12936;52.006;4.350;2023-06-26T07:40:06;21.60;99.90
24860;DHT22;12936;52.006;4.350;2023-06-26T07:42:36;21.50;99.90
24860;DHT22;12936;52.006;4.350;2023-06-26T07:45:05;21.50;99.90
24860;DHT22;12936;52.006;4.350;2023-06-26T07:47:37;21.30;99.90
24860;DHT22;12936;52.006;4.350;2023-06-26T07:50:05;21.40;99.90
24860;DHT22;12936;52.006;4.350;2023-06-26T07:52:34;21.50;99.90
24860;DHT22;12936;52.006;4.350;2023-06-26T07:55:02;21.60;99.90
24860;DHT22;12936;52.006;4.350;2023-06-26T07:57:30;21.70;99.90
24860;DHT22;12936;52.006;4.350;2023-06-26T08:00:00;21.70;99.90
24860;DHT22;12936;52.006;4.350;2023-06-26T08:02:28;21.80;99.90
24860;DHT22;12936;52.006;4.350;2023-06-26T08:04:57;21.80;99.90
24860;DHT22;12936;52.006;4.350;2023-06-26T08:07:25;21.80;99.90
24860;DHT22;12936;52.006;4.350;2023-06-26T08:09:53;21.80;99.90
24860;DHT22;12936;52.006;4.350;2023-06-26T08:12:21;21.90;99.90
24860;DHT22;12936;52.006;4.350;2023-06-26T08:14:49;21.90;99.90
24860;DHT22;12936;52.006;4.350;2023-06-26T08:17:19;21.90;99.90
24860;DHT22;12936;52.006;4.350;2023-06-26T08:19:47;21.90;99.90
24860;DHT22;12936;52.006;4.350;2023-06-26T08:22:15;21.90;99.90
24860;DHT22;12936;52.006;4.350;2023-06-26T08:24:43;21.90;99.90
24860;DHT22;12936;52.006;4.350;2023-06-26T08:27:11;22.00;99.90
24860;DHT22;12936;52.006;4.350;2023-06-26T08:29:39;22.00;99.90
24860;DHT22;12936;52.006;4.350;2023-06-26T08:32:07;21.90;99.90
24860;DHT22;12936;52.006;4.350;2023-06-26T08:34:37;22.00;99.90
24860;DHT22;12936;52.006;4.350;2023-06-26T08:37:05;22.00;99.90
24860;DHT22;12936;52.006;4.350;2023-06-26T08:39:36;22.10;99.90
24860;DHT22;12936;52.006;4.350;2023-06-26T08:42:04;22.10;99.90
24860;DHT22;12936;52.006;4.350;2023-06-26T08:44:32;22.20;99.90
24860;DHT22;12936;52.006;4.350;2023-06-26T08:47:03;22.20;99.90
24860;DHT22;12936;52.006;4.350;2023-06-26T08:49:46;22.20;99.90
24860;DHT22;12936;52.006;4.350;2023-06-26T08:52:19;22.30;99.90
24860;DHT22;12936;52.006;4.350;2023-06-26T08:54:54;22.20;99.90
24860;DHT22;12936;52.006;4.350;2023-06-26T08:57:23;22.20;99.90
24860;DHT22;12936;52.006;4.350;2023-06-26T08:59:52;22.20;99.90
24860;DHT22;12936;52.006;4.350;2023-06-26T09:02:20;22.20;99.90
24860;DHT22;12936;52.006;4.350;2023-06-26T09:04:50;22.20;99.90
24860;DHT22;12936;52.006;4.350;2023-06-26T09:07:18;22.20;99.90
24860;DHT22;12936;52.006;4.350;2023-06-26T09:09:47;22.10;99.90
24860;DHT22;12936;52.006;4.350;2023-06-26T09:12:15;22.10;99.90
24860;DHT22;12936;52.006;4.350;2023-06-26T09:14:43;22.10;99.90
24860;DHT22;12936;52.006;4.350;2023-06-26T09:17:13;22.10;99.90
24860;DHT22;12936;52.006;4.350;2023-06-26T09:19:41;22.00;99.90
24860;DHT22;12936;52.006;4.350;2023-06-26T09:22:14;22.00;99.90
24860;DHT22;12936;52.006;4.350;2023-06-26T09:24:44;22.10;99.90
24860;DHT22;12936;52.006;4.350;2023-06-26T09:27:12;22.00;99.90
24860;DHT22;12936;52.006;4.350;2023-06-26T09:29:40;22.10;99.90
24860;DHT22;12936;52.006;4.350;2023-06-26T09:32:09;22.10;99.90
24860;DHT22;12936;52.006;4.350;2023-06-26T09:34:41;22.10;99.90
24860;DHT22;12936;52.006;4.350;2023-06-26T09:37:13;22.10;99.90
24860;DHT22;12936;52.006;4.350;2023-06-26T09:39:41;22.20;99.90
24860;DHT22;12936;52.006;4.350;2023-06-26T09:42:09;22.20;99.90
24860;DHT22;12936;52.006;4.350;2023-06-26T09:44:43;22.10;99.90
24860;DHT22;12936;52.006;4.350;2023-06-26T09:47:11;22.10;99.90
24860;DHT22;12936;52.006;4.350;2023-06-26T09:49:41;22.00;99.90
24860;DHT22;12936;52.006;4.350;2023-06-26T09:52:09;22.00;99.90
24860;DHT22;12936;52.006;4.350;2023-06-26T09:54:39;21.90;99.90
24860;DHT22;12936;52.006;4.350;2023-06-26T09:57:07;22.00;99.90
24860;DHT22;12936;52.006;4.350;2023-06-26T09:59:36;22.00;99.90
24860;DHT22;12936;52.006;4.350;2023-06-26T10:02:06;22.00;99.90
24860;DHT22;12936;52.006;4.350;2023-06-26T10:04:35;22.00;99.90
24860;DHT22;12936;52.006;4.350;2023-06-26T10:07:06;21.80;99.90
24860;DHT22;12936;52.006;4.350;2023-06-26T10:09:40;21.80;99.90
24860;DHT22;12936;52.006;4.350;2023-06-26T10:12:13;21.80;99.90
24860;DHT22;12936;52.006;4.350;2023-06-26T10:14:45;21.90;99.90
24860;DHT22;12936;52.006;4.350;2023-06-26T10:17:16;22.00;99.90
24860;DHT22;12936;52.006;4.350;2023-06-26T10:19:47;22.00;99.90
24860;DHT22;12936;52.006;4.350;2023-06-26T10:22:20;22.00;99.90
24860;DHT22;12936;52.006;4.350;2023-06-26T10:24:51;21.90;99.90
24860;DHT22;12936;52.006;4.350;2023-06-26T10:27:21;21.90;99.90
24860;DHT22;12936;52.006;4.350;2023-06-26T10:29:53;21.90;99.90
24860;DHT22;12936;52.006;4.350;2023-06-26T10:32:24;21.90;99.90
24860;DHT22;12936;52.006;4.350;2023-06-26T10:34:53;22.00;99.90
24860;DHT22;12936;52.006;4.350;2023-06-26T10:37:21;22.10;99.90
24860;DHT22;12936;52.006;4.350;2023-06-26T10:40:09;22.10;99.90
24860;DHT22;12936;52.006;4.350;2023-06-26T10:42:39;22.20;99.90
24860;DHT22;12936;52.006;4.350;2023-06-26T10:45:13;22.20;99.90
24860;DHT22;12936;52.006;4.350;2023-06-26T10:47:43;22.20;99.90
24860;DHT22;12936;52.006;4.350;2023-06-26T10:50:17;22.20;99.90
24860;DHT22;12936;52.006;4.350;2023-06-26T10:53:09;22.20;99.90
24860;DHT22;12936;52.006;4.350;2023-06-26T10:55:41;22.20;99.90
24860;DHT22;12936;52.006;4.350;2023-06-26T10:58:40;22.30;99.90
24860;DHT22;12936;52.006;4.350;2023-06-26T11:01:21;22.10;99.90
24860;DHT22;12936;52.006;4.350;2023-06-26T11:04:03;22.10;99.90
24860;DHT22;12936;52.006;4.350;2023-06-26T11:06:32;22.10;99.90
24860;DHT22;12936;52.006;4.350;2023-06-26T11:09:06;22.20;99.90
24860;DHT22;12936;52.006;4.350;2023-06-26T11:11:58;22.10;99.90
24860;DHT22;12936;52.006;4.350;2023-06-26T11:14:35;22.10;99.90
24860;DHT22;12936;52.006;4.350;2023-06-26T11:17:04;22.10;99.90
24860;DHT22;12936;52.006;4.350;2023-06-26T11:19:32;22.20;99.90
24860;DHT22;12936;52.006;4.350;2023-06-26T11:22:04;22.20;99.90
24860;DHT22;12936;52.006;4.350;2023-06-26T11:24:33;22.20;99.90
24860;DHT22;12936;52.006;4.350;2023-06-26T11:27:04;22.20;99.90
24860;DHT22;12936;52.006;4.350;2023-06-26T11:29:32;22.20;99.90
24860;DHT22;12936;52.006;4.350;2023-06-26T11:32:03;22.30;99.90
24860;DHT22;12936;52.006;4.350;2023-06-26T11:34:34;22.30;99.90
24860;DHT22;12936;52.006;4.350;2023-06-26T11:37:02;22.40;99.90
24860;DHT22;12936;52.006;4.350;2023-06-26T11:39:31;22.30;99.90
24860;DHT22;12936;52.006;4.350;2023-06-26T11:42:00;22.40;99.90
24860;DHT22;12936;52.006;4.350;2023-06-26T11:44:40;22.50;99.90
24860;DHT22;12936;52.006;4.350;2023-06-26T11:47:12;22.50;99.90
24860;DHT22;12936;52.006;4.350;2023-06-26T11:49:42;22.60;99.90
24860;DHT22;12936;52.006;4.350;2023-06-26T11:52:11;22.50;99.90
24860;DHT22;12936;52.006;4.350;2023-06-26T11:54:39;22.50;99.90
24860;DHT22;12936;52.006;4.350;2023-06-26T11:57:07;22.50;99.90
24860;DHT22;12936;52.006;4.350;2023-06-26T11:59:38;22.60;99.90
24860;DHT22;12936;52.006;4.350;2023-06-26T12:02:07;22.50;99.90
24860;DHT22;12936;52.006;4.350;2023-06-26T12:04:38;22.60;99.90
24860;DHT22;12936;52.006;4.350;2023-06-26T12:07:08;22.60;99.90
24860;DHT22;12936;52.006;4.350;2023-06-26T12:09:41;22.70;99.90
24860;DHT22;12936;52.006;4.350;2023-06-26T12:12:11;22.70;99.90
24860;DHT22;12936;52.006;4.350;2023-06-26T12:14:41;22.80;99.90
24860;DHT22;12936;52.006;4.350;2023-06-26T12:17:11;22.80;99.90
24860;DHT22;12936;52.006;4.350;2023-06-26T12:19:44;22.80;99.90
24860;DHT22;12936;52.006;4.350;2023-06-26T12:22:14;22.80;99.90
24860;DHT22;12936;52.006;4.350;2023-06-26T12:24:43;22.70;99.90
24860;DHT22;12936;52.006;4.350;2023-06-26T12:27:13;22.80;99.90
24860;DHT22;12936;52.006;4.350;2023-06-26T12:29:49;22.80;99.90
24860;DHT22;12936;52.006;4.350;2023-06-26T12:32:17;22.90;99.90
24860;DHT22;12936;52.006;4.350;2023-06-26T12:34:49;23.00;99.90
24860;DHT22;12936;52.006;4.350;2023-06-26T12:37:17;23.00;99.90
24860;DHT22;12936;52.006;4.350;2023-06-26T12:39:46;23.10;99.90
24860;DHT22;12936;52.006;4.350;2023-06-26T12:42:17;23.10;99.90
24860;DHT22;12936;52.006;4.350;2023-06-26T12:44:47;23.20;99.90
24860;DHT22;12936;52.006;4.350;2023-06-26T12:47:16;23.20;99.90
24860;DHT22;12936;52.006;4.350;2023-06-26T12:49:50;23.30;99.90
24860;DHT22;12936;52.006;4.350;2023-06-26T12:52:19;23.30;99.90
24860;DHT22;12936;52.006;4.350;2023-06-26T12:54:52;23.30;99.90
24860;DHT22;12936;52.006;4.350;2023-06-26T12:57:20;23.40;99.90
24860;DHT22;12936;52.006;4.350;2023-06-26T12:59:50;23.40;99.90
24860;DHT22;12936;52.006;4.350;2023-06-26T13:02:18;23.40;99.90
24860;DHT22;12936;52.006;4.350;2023-06-26T13:04:47;23.50;99.90
24860;DHT22;12936;52.006;4.350;2023-06-26T13:07:15;23.60;99.90
24860;DHT22;12936;52.006;4.350;2023-06-26T13:09:43;23.60;99.90
24860;DHT22;12936;52.006;4.350;2023-06-26T13:12:12;23.70;99.90
24860;DHT22;12936;52.006;4.350;2023-06-26T13:14:40;23.80;99.90
24860;DHT22;12936;52.006;4.350;2023-06-26T13:17:11;23.90;99.90
24860;DHT22;12936;52.006;4.350;2023-06-26T13:19:39;24.00;99.90
24860;DHT22;12936;52.006;4.350;2023-06-26T13:22:07;24.00;99.90
24860;DHT22;12936;52.006;4.350;2023-06-26T13:24:35;23.90;99.90
24860;DHT22;12936;52.006;4.350;2023-06-26T13:27:04;24.00;99.90
24860;DHT22;12936;52.006;4.350;2023-06-26T13:29:32;24.10;99.90
24860;DHT22;12936;52.006;4.350;2023-06-26T13:32:00;24.20;99.90
24860;DHT22;12936;52.006;4.350;2023-06-26T13:34:30;24.30;99.90
24860;DHT22;12936;52.006;4.350;2023-06-26T13:36:58;24.40;99.90
24860;DHT22;12936;52.006;4.350;2023-06-26T13:39:27;24.40;99.90
24860;DHT22;12936;52.006;4.350;2023-06-26T13:41:55;24.50;99.90
24860;DHT22;12936;52.006;4.350;2023-06-26T13:44:24;24.60;99.90
24860;DHT22;12936;52.006;4.350;2023-06-26T13:47:07;24.60;99.90
24860;DHT22;12936;52.006;4.350;2023-06-26T13:49:37;24.60;99.90
24860;DHT22;12936;52.006;4.350;2023-06-26T13:52:06;24.60;99.90
24860;DHT22;12936;52.006;4.350;2023-06-26T13:54:35;24.70;99.90
24860;DHT22;12936;52.006;4.350;2023-06-26T13:57:07;24.80;99.90
24860;DHT22;12936;52.006;4.350;2023-06-26T13:59:37;24.80;99.90
24860;DHT22;12936;52.006;4.350;2023-06-26T14:02:06;24.90;99.90
24860;DHT22;12936;52.006;4.350;2023-06-26T14:04:34;24.90;99.90
24860;DHT22;12936;52.006;4.350;2023-06-26T14:07:05;24.90;99.90
24860;DHT22;12936;52.006;4.350;2023-06-26T14:09:34;25.00;99.90
24860;DHT22;12936;52.006;4.350;2023-06-26T14:12:02;25.00;99.90
24860;DHT22;12936;52.006;4.350;2023-06-26T14:14:31;25.00;99.90
24860;DHT22;12936;52.006;4.350;2023-06-26T14:16:59;25.10;99.90
24860;DHT22;12936;52.006;4.350;2023-06-26T14:19:27;25.10;99.90
24860;DHT22;12936;52.006;4.350;2023-06-26T14:21:55;25.20;99.90
24860;DHT22;12936;52.006;4.350;2023-06-26T14:24:26;25.30;99.90
24860;DHT22;12936;52.006;4.350;2023-06-26T14:26:54;25.50;99.90
24860;DHT22;12936;52.006;4.350;2023-06-26T14:29:22;25.60;99.90
24860;DHT22;12936;52.006;4.350;2023-06-26T14:31:51;25.70;99.90
24860;DHT22;12936;52.006;4.350;2023-06-26T14:34:22;25.80;99.90
24860;DHT22;12936;52.006;4.350;2023-06-26T14:36:50;26.00;99.90
24860;DHT22;12936;52.006;4.350;2023-06-26T14:39:18;26.20;99.90
24860;DHT22;12936;52.006;4.350;2023-06-26T14:41:48;26.30;99.90
24860;DHT22;12936;52.006;4.350;2023-06-26T14:44:17;26.20;99.90
24860;DHT22;12936;52.006;4.350;2023-06-26T14:46:45;26.40;99.90
24860;DHT22;12936;52.006;4.350;2023-06-26T14:49:13;26.20;99.90
24860;DHT22;12936;52.006;4.350;2023-06-26T14:51:41;26.30;99.90
24860;DHT22;12936;52.006;4.350;2023-06-26T14:54:10;26.20;99.90
24860;DHT22;12936;52.006;4.350;2023-06-26T14:56:38;26.20;99.90
24860;DHT22;12936;52.006;4.350;2023-06-26T14:59:07;26.20;99.90
24860;DHT22;12936;52.006;4.350;2023-06-26T15:01:36;26.40;99.90
24860;DHT22;12936;52.006;4.350;2023-06-26T15:04:04;26.60;99.90
24860;DHT22;12936;52.006;4.350;2023-06-26T15:06:33;26.60;99.90
24860;DHT22;12936;52.006;4.350;2023-06-26T15:09:01;26.70;99.90
24860;DHT22;12936;52.006;4.350;2023-06-26T15:11:29;26.70;99.90
24860;DHT22;12936;52.006;4.350;2023-06-26T15:13:57;26.90;99.90
24860;DHT22;12936;52.006;4.350;2023-06-26T15:16:27;26.90;99.90
24860;DHT22;12936;52.006;4.350;2023-06-26T15:18:55;27.10;99.90
24860;DHT22;12936;52.006;4.350;2023-06-26T15:21:23;27.20;99.90
24860;DHT22;12936;52.006;4.350;2023-06-26T15:23:51;27.40;99.90
24860;DHT22;12936;52.006;4.350;2023-06-26T15:26:19;27.50;99.90
24860;DHT22;12936;52.006;4.350;2023-06-26T15:28:47;27.50;99.90
24860;DHT22;12936;52.006;4.350;2023-06-26T15:31:17;27.70;99.90
24860;DHT22;12936;52.006;4.350;2023-06-26T15:33:47;27.80;99.90
24860;DHT22;12936;52.006;4.350;2023-06-26T15:36:15;27.80;99.90
24860;DHT22;12936;52.006;4.350;2023-06-26T15:38:43;27.90;99.90
24860;DHT22;12936;52.006;4.350;2023-06-26T15:41:11;28.00;99.90
24860;DHT22;12936;52.006;4.350;2023-06-26T15:43:39;28.00;99.90